Terminal Aerodrome Forecast
Issued by NWS Louisville, KY

Home | Current Version | Previous Version | Text Only | Print | Product List | Glossary On
Versions: 1 2 3 4 5 6 7 8 9 10 11 12 13 14 15 16 17 18 19
726
FTUS43 KLMK 261148
TAFLEX
TAF
KLEX 261148Z 2612/2712 21010KT P6SM -SHRA BKN040
     FM261400 20013G20KT P6SM VCSH BKN021
     FM261900 21014G22KT P6SM BKN035
     FM270000 20005KT P6SM BKN080
     FM270700 17004KT 5SM BR BKN050=

USA.gov is the U.S. government's official web portal to all federal, state and local government web resources and services.